Time;durP1;ratioP1;P1;durP2;ratioP2;P2;SDS_P1;SDS_P2;PMS_P1;PMS_P2;Temp;Humidity;BMP_temperature;BMP_pressure;BME280_temperature;BME280_humidity;BME280_pressure;Samples;Min_cycle;Max_cycle;Signal;HPM_P1;HPM_P2
2021/01/24 00:00:00;;;;;;;90.30;40.72;;;;;;;5.62;61.74;98280.25;5089930;28;20115;-77
2021/01/24 00:02:26;;;;;;;84.00;35.70;;;;;;;5.56;62.04;98284.00;5091076;28;20048;-75
2021/01/24 00:04:56;;;;;;;29.80;16.10;;;;;;;5.57;61.85;98288.28;5091588;28;20468;-77
2021/01/24 00:07:22;;;;;;;32.33;14.52;;;;;;;5.50;61.89;98279.13;5091435;28;20105;-75
2021/01/24 00:09:52;;;;;;;28.42;14.90;;;;;;;5.42;62.29;98289.91;5091009;28;20048;-76
2021/01/24 00:12:18;;;;;;;31.25;15.63;;;;;;;5.33;62.11;98285.13;5091371;28;20453;-76
2021/01/24 00:14:44;;;;;;;28.60;14.27;;;;;;;5.30;62.39;98280.09;5090876;28;20046;-76
2021/01/24 00:17:11;;;;;;;30.20;12.90;;;;;;;5.27;62.21;98274.19;5091285;28;20040;-75
2021/01/24 00:19:42;;;;;;;21.25;12.13;;;;;;;5.22;62.37;98271.00;5091301;28;20495;-75
2021/01/24 00:22:09;;;;;;;22.58;11.73;;;;;;;5.18;62.38;98265.91;5091389;28;20263;-76
2021/01/24 00:24:35;;;;;;;26.77;12.57;;;;;;;5.17;62.61;98269.44;5091159;28;20697;-77
2021/01/24 00:27:02;;;;;;;21.67;11.25;;;;;;;5.16;62.58;98266.91;5091038;28;20048;-75
2021/01/24 00:29:28;;;;;;;21.70;12.43;;;;;;;5.19;62.47;98267.59;5091194;28;20044;-76
2021/01/24 00:31:55;;;;;;;20.02;11.45;;;;;;;5.10;62.66;98273.25;5090870;28;20071;-75
2021/01/24 00:34:21;;;;;;;18.55;10.00;;;;;;;5.10;62.59;98260.25;5090939;28;20076;-75
2021/01/24 00:36:48;;;;;;;18.90;9.88;;;;;;;5.09;62.79;98268.13;5084852;28;20131;-75
2021/01/24 00:39:14;;;;;;;18.48;11.57;;;;;;;5.08;62.75;98267.28;5093842;28;20097;-76
2021/01/24 00:41:41;;;;;;;18.15;11.57;;;;;;;5.07;62.94;98263.00;5094173;28;20139;-76
2021/01/24 00:44:08;;;;;;;29.00;15.48;;;;;;;5.08;62.92;98269.03;5095099;28;20048;-76
2021/01/24 00:46:38;;;;;;;29.08;17.33;;;;;;;5.09;63.03;98266.38;5094241;28;20166;-76
2021/01/24 00:49:04;;;;;;;34.80;20.17;;;;;;;5.13;62.77;98273.09;5087961;28;20043;-75
2021/01/24 00:51:30;;;;;;;38.03;21.45;;;;;;;5.13;62.75;98273.09;5097812;28;20426;-75
2021/01/24 00:53:57;;;;;;;34.95;19.25;;;;;;;5.14;62.89;98260.94;5090957;28;20487;-75
2021/01/24 00:56:26;;;;;;;37.17;19.67;;;;;;;5.13;63.00;98260.09;5092371;28;20040;-75
2021/01/24 00:58:53;;;;;;;43.83;20.90;;;;;;;5.13;63.22;98262.69;5088837;28;20044;-76
2021/01/24 01:01:20;;;;;;;40.60;20.95;;;;;;;5.14;62.93;98254.00;5092130;28;20121;-75
2021/01/24 01:03:46;;;;;;;36.67;17.92;;;;;;;5.16;62.91;98248.72;5092909;28;20307;-75
2021/01/24 01:06:12;;;;;;;34.05;17.80;;;;;;;5.18;63.10;98249.50;5091818;28;20523;-77
2021/01/24 01:08:39;;;;;;;34.80;17.55;;;;;;;5.17;63.10;98247.81;5092034;28;20056;-77
2021/01/24 01:11:05;;;;;;;33.15;16.27;;;;;;;5.13;63.43;98252.31;5092181;28;20086;-72
2021/01/24 01:13:31;;;;;;;31.63;15.93;;;;;;;5.10;63.24;98246.44;5092376;28;20138;-73
2021/01/24 01:15:57;;;;;;;31.35;17.58;;;;;;;5.08;63.27;98248.25;5091980;28;20089;-71
2021/01/24 01:18:24;;;;;;;32.35;15.88;;;;;;;5.04;63.30;98246.72;5092045;28;20040;-72
2021/01/24 01:20:51;;;;;;;29.15;15.60;;;;;;;5.01;63.65;98252.91;5091723;28;20051;-71
2021/01/24 01:23:17;;;;;;;38.75;17.48;;;;;;;5.02;63.48;98241.63;5092477;28;20462;-72
2021/01/24 01:25:43;;;;;;;35.92;17.67;;;;;;;5.03;63.47;98245.88;5091639;28;20571;-73
2021/01/24 01:28:09;;;;;;;42.03;20.33;;;;;;;5.01;63.66;98246.88;5092369;28;20143;-73
2021/01/24 01:30:35;;;;;;;33.38;16.73;;;;;;;4.98;63.70;98237.44;5093871;28;20181;-72
2021/01/24 01:33:01;;;;;;;36.17;17.95;;;;;;;4.99;63.60;98239.13;5093506;28;20135;-71
2021/01/24 01:35:28;;;;;;;29.23;16.65;;;;;;;5.01;63.55;98242.53;5093912;28;20551;-73
2021/01/24 01:37:54;;;;;;;32.85;17.00;;;;;;;4.99;63.74;98246.94;5093271;28;20469;-74
2021/01/24 01:40:20;;;;;;;33.78;16.27;;;;;;;5.01;63.54;98242.53;5094142;28;20050;-74
2021/01/24 01:42:46;;;;;;;31.90;16.83;;;;;;;5.07;63.58;98242.22;5093656;28;20123;-74
2021/01/24 01:45:13;;;;;;;35.63;16.52;;;;;;;5.08;63.51;98241.31;5092283;28;20488;-74
2021/01/24 01:47:40;;;;;;;30.65;16.05;;;;;;;5.09;63.47;98240.41;5093497;28;20048;-73
2021/01/24 01:50:08;;;;;;;29.80;15.20;;;;;;;5.06;63.61;98235.34;5092879;28;20067;-74
2021/01/24 01:52:35;;;;;;;29.88;15.30;;;;;;;5.07;63.76;98226.66;5092882;28;20181;-73
2021/01/24 01:55:02;;;;;;;54.33;19.88;;;;;;;5.07;63.81;98210.22;5092941;28;20056;-74
2021/01/24 01:57:29;;;;;;;43.03;18.90;;;;;;;5.07;63.78;98205.03;5092753;28;20050;-73
2021/01/24 01:59:55;;;;;;;43.58;21.05;;;;;;;5.11;63.65;98202.19;5091399;28;20621;-73
2021/01/24 02:02:43;;;;;;;48.85;23.00;;;;;;;5.13;63.95;98186.53;5091726;28;20055;-73
2021/01/24 02:05:18;;;;;;;28.40;15.00;;;;;;;5.16;63.81;98192.41;5092997;28;20128;-73
2021/01/24 02:07:54;;;;;;;31.95;16.70;;;;;;;5.18;63.70;98181.94;5092915;28;20055;-74
2021/01/24 02:10:26;;;;;;;31.92;15.88;;;;;;;5.16;63.84;98178.59;5093445;28;20052;-74
2021/01/24 02:13:01;;;;;;;25.33;13.85;;;;;;;5.11;63.76;98171.03;5089848;28;20191;-74
2021/01/24 02:15:28;;;;;;;26.48;13.05;;;;;;;5.11;63.86;98170.19;5089049;28;20072;-74
2021/01/24 02:17:59;;;;;;;26.30;13.65;;;;;;;5.12;63.84;98164.91;5092504;28;20510;-74
2021/01/24 02:20:30;;;;;;;32.80;16.63;;;;;;;5.18;63.97;98161.16;5092813;28;20123;-74
2021/01/24 02:22:58;;;;;;;34.87;16.50;;;;;;;5.19;63.61;98168.88;5092392;28;20477;-74
2021/01/24 02:25:36;;;;;;;39.70;18.85;;;;;;;5.20;63.81;98160.22;5088908;28;20040;-74
2021/01/24 02:28:12;;;;;;;42.92;19.73;;;;;;;5.24;63.56;98165.25;5092876;28;20052;-74
2021/01/24 02:30:39;;;;;;;33.88;15.00;;;;;;;5.25;63.49;98156.53;5093127;28;20112;-74
2021/01/24 02:33:09;;;;;;;28.25;15.73;;;;;;;5.16;63.98;98153.47;5092611;28;20048;-74
2021/01/24 02:35:40;;;;;;;25.98;14.50;;;;;;;5.19;63.95;98165.44;5092690;28;20050;-74
2021/01/24 02:38:09;;;;;;;51.42;23.50;;;;;;;5.22;63.52;98160.13;5092988;28;20509;-74
2021/01/24 02:40:38;;;;;;;62.60;27.38;;;;;;;5.22;63.67;98156.69;5091609;28;20076;-74
2021/01/24 02:43:08;;;;;;;76.97;30.25;;;;;;;5.21;63.79;98148.06;5091882;28;20138;-74
2021/01/24 02:45:35;;;;;;;64.22;28.00;;;;;;;5.26;63.63;98151.25;5091851;28;20044;-74
2021/01/24 02:48:04;;;;;;;46.42;23.90;;;;;;;5.27;63.81;98154.69;5092830;28;20448;-74
2021/01/24 02:50:31;;;;;;;50.83;23.90;;;;;;;5.31;63.80;98157.06;5091889;28;20072;-74
2021/01/24 02:52:59;;;;;;;45.65;21.30;;;;;;;5.32;63.70;98158.72;5091846;28;20054;-74
2021/01/24 02:55:26;;;;;;;48.95;22.65;;;;;;;5.37;63.68;98158.50;5092584;28;20127;-74
2021/01/24 02:57:53;;;;;;;49.95;20.60;;;;;;;5.42;63.31;98161.72;5092182;28;20080;-74
2021/01/24 03:00:20;;;;;;;52.35;22.30;;;;;;;5.40;63.62;98151.38;5091111;28;20044;-73
2021/01/24 03:02:47;;;;;;;40.20;21.20;;;;;;;5.37;63.57;98146.34;5092032;28;20052;-73
2021/01/24 03:05:14;;;;;;;33.47;17.75;;;;;;;5.33;63.49;98146.59;5091641;28;20040;-73
2021/01/24 03:07:41;;;;;;;35.72;19.25;;;;;;;5.37;63.58;98140.31;5092087;28;20074;-73
2021/01/24 03:10:08;;;;;;;44.58;20.20;;;;;;;5.40;63.60;98145.34;5091704;28;20569;-72
2021/01/24 03:12:39;;;;;;;38.80;20.02;;;;;;;5.39;63.43;98138.47;5091751;28;20052;-73
2021/01/24 03:15:06;;;;;;;39.22;18.33;;;;;;;5.44;63.37;98136.50;5090693;28;20048;-73
2021/01/24 03:17:36;;;;;;;32.25;18.50;;;;;;;5.42;63.46;98126.19;5091752;28;20127;-72
2021/01/24 03:20:05;;;;;;;25.15;13.90;;;;;;;5.42;63.31;98125.34;5091492;28;20131;-72
2021/01/24 03:22:34;;;;;;;23.65;13.73;;;;;;;5.35;63.52;98119.59;5091385;28;20124;-73
2021/01/24 03:25:01;;;;;;;21.10;12.20;;;;;;;5.34;63.53;98125.72;5091947;28;20131;-74
2021/01/24 03:27:28;;;;;;;25.00;14.40;;;;;;;5.33;63.45;98134.44;5091478;28;20526;-73
2021/01/24 03:29:54;;;;;;;21.13;13.80;;;;;;;5.33;63.46;98133.59;5091369;28;20473;-73
2021/01/24 03:32:21;;;;;;;27.15;13.68;;;;;;;5.27;63.82;98133.91;5091362;28;20048;-74
2021/01/24 03:34:47;;;;;;;25.00;13.65;;;;;;;5.24;63.89;98128.88;5091254;28;20105;-74
2021/01/24 03:37:13;;;;;;;23.67;13.77;;;;;;;5.22;63.90;98130.72;5091249;28;20175;-74
2021/01/24 03:39:40;;;;;;;26.70;13.25;;;;;;;5.23;63.92;98132.41;5092136;28;20122;-73
2021/01/24 03:42:06;;;;;;;29.35;15.05;;;;;;;5.18;63.71;98130.84;5089990;28;20051;-72
2021/01/24 03:44:32;;;;;;;27.17;16.98;;;;;;;5.16;63.81;98127.47;5091197;28;20056;-73
2021/01/24 03:46:58;;;;;;;38.22;19.27;;;;;;;5.12;63.74;98125.13;5091339;28;20036;-74
2021/01/24 03:49:24;;;;;;;34.33;20.75;;;;;;;4.98;64.15;98118.00;5091392;28;20043;-73
2021/01/24 03:51:51;;;;;;;35.17;19.20;;;;;;;4.83;64.43;98121.38;5084238;28;20581;-73
2021/01/24 03:54:17;;;;;;;33.80;16.88;;;;;;;4.76;64.53;98127.75;5089328;28;20048;-73
2021/01/24 03:56:44;;;;;;;31.90;17.33;;;;;;;4.73;64.44;98122.72;5089519;28;20044;-74
2021/01/24 03:59:10;;;;;;;26.80;16.67;;;;;;;4.73;64.63;98118.38;5089574;28;20080;-74
2021/01/24 04:01:36;;;;;;;27.83;15.27;;;;;;;4.79;64.09;98117.22;5089524;28;20048;-74
2021/01/24 04:04:03;;;;;;;29.38;15.88;;;;;;;4.84;64.16;98121.31;5092504;28;20101;-73
2021/01/24 04:06:29;;;;;;;30.85;14.63;;;;;;;4.79;64.31;98125.00;5098611;28;20126;-73
2021/01/24 04:08:55;;;;;;;24.85;14.10;;;;;;;4.79;64.28;98133.69;5111664;28;20046;-74
2021/01/24 04:11:21;;;;;;;27.05;14.73;;;;;;;4.81;64.19;98141.38;5111417;28;20067;-74
2021/01/24 04:13:48;;;;;;;25.25;13.32;;;;;;;4.90;63.96;98135.72;5114117;27;20084;-74
2021/01/24 04:16:14;;;;;;;23.85;13.65;;;;;;;4.97;63.72;98134.50;5115261;28;20046;-73
2021/01/24 04:18:40;;;;;;;20.60;11.75;;;;;;;5.03;63.78;98139.41;5115994;28;20044;-73
2021/01/24 04:21:06;;;;;;;29.48;13.85;;;;;;;5.10;63.50;98135.59;5114944;28;20529;-73
2021/01/24 04:23:33;;;;;;;24.63;13.77;;;;;;;5.15;63.44;98138.78;5115297;27;20414;-73
2021/01/24 04:25:59;;;;;;;30.63;16.02;;;;;;;5.14;63.47;98138.88;5114355;28;20043;-73
2021/01/24 04:28:25;;;;;;;22.95;14.57;;;;;;;5.15;63.60;98130.16;5115307;28;20553;-73
2021/01/24 04:30:52;;;;;;;28.45;15.73;;;;;;;5.15;63.51;98132.75;5113442;28;20761;-74
2021/01/24 04:33:18;;;;;;;26.67;15.35;;;;;;;5.16;63.53;98121.44;5093505;28;20146;-73
2021/01/24 04:35:44;;;;;;;25.10;14.43;;;;;;;5.08;63.74;98124.44;5094842;28;20047;-72
2021/01/24 04:38:10;;;;;;;22.92;13.18;;;;;;;4.99;63.96;98119.69;5095119;28;20083;-73
2021/01/24 04:40:36;;;;;;;24.10;12.43;;;;;;;4.93;63.99;98125.19;5095174;28;20069;-73
2021/01/24 04:43:03;;;;;;;21.33;12.40;;;;;;;4.91;64.12;98142.59;5095249;28;20491;-73
2021/01/24 04:45:29;;;;;;;26.30;13.50;;;;;;;4.92;63.87;98140.84;5095938;28;20127;-72
2021/01/24 04:47:57;;;;;;;24.98;13.88;;;;;;;4.87;64.19;98149.72;5095823;28;20398;-73
2021/01/24 04:50:24;;;;;;;33.63;18.20;;;;;;;4.86;64.25;98148.03;5095345;28;20060;-74
2021/01/24 04:52:51;;;;;;;32.67;18.35;;;;;;;4.80;64.25;98150.94;5095283;28;20056;-73
2021/01/24 04:55:17;;;;;;;39.47;20.60;;;;;;;4.82;64.12;98153.44;5095513;28;20048;-73
2021/01/24 04:57:45;;;;;;;42.60;21.33;;;;;;;4.81;64.04;98147.41;5095708;28;20134;-74
2021/01/24 05:00:12;;;;;;;41.20;20.13;;;;;;;4.80;64.27;98147.50;5094800;28;20131;-74
2021/01/24 05:02:40;;;;;;;40.85;22.90;;;;;;;4.75;64.32;98139.91;5093528;28;20123;-74
2021/01/24 05:05:09;;;;;;;43.85;22.25;;;;;;;4.79;64.26;98143.19;5094503;28;20119;-73
2021/01/24 05:07:35;;;;;;;46.75;22.20;;;;;;;4.82;64.19;98137.88;5089391;28;20274;-73
2021/01/24 05:10:03;;;;;;;39.80;20.67;;;;;;;4.81;64.10;98138.78;5094655;28;20124;-73
2021/01/24 05:12:29;;;;;;;35.55;17.95;;;;;;;4.85;64.15;98148.09;5094590;28;20058;-74
2021/01/24 05:14:58;;;;;;;37.83;20.55;;;;;;;4.92;63.86;98143.44;5094432;28;20044;-75
2021/01/24 05:17:24;;;;;;;42.40;20.85;;;;;;;4.93;63.91;98130.38;5094819;28;20097;-73
2021/01/24 05:19:50;;;;;;;35.38;18.15;;;;;;;4.98;64.05;98124.97;5095239;28;20445;-73
2021/01/24 05:22:17;;;;;;;34.15;18.35;;;;;;;5.03;63.96;98118.66;5094967;28;20502;-73
2021/01/24 05:24:44;;;;;;;30.17;17.27;;;;;;;5.01;63.93;98112.69;5094312;28;20478;-73
2021/01/24 05:27:12;;;;;;;29.48;15.15;;;;;;;4.97;64.31;98112.88;5094920;28;20085;-73
2021/01/24 05:29:41;;;;;;;35.53;16.70;;;;;;;4.93;64.34;98114.81;5095189;28;20056;-73
2021/01/24 05:32:08;;;;;;;26.25;15.15;;;;;;;4.95;64.47;98112.97;5094726;28;20052;-73
2021/01/24 05:34:34;;;;;;;31.48;16.45;;;;;;;4.90;64.52;98114.97;5095203;28;20048;-73
2021/01/24 05:37:01;;;;;;;24.80;14.85;;;;;;;4.91;64.65;98111.44;5094857;28;20050;-73
2021/01/24 05:39:30;;;;;;;32.40;20.38;;;;;;;4.92;64.46;98113.13;5095202;28;20058;-74
2021/01/24 05:41:58;;;;;;;32.92;17.58;;;;;;;4.94;64.36;98126.88;5094811;28;20040;-73
2021/01/24 05:44:25;;;;;;;32.35;16.38;;;;;;;4.93;64.55;98111.38;5094933;28;20135;-73
2021/01/24 05:46:54;;;;;;;25.80;14.73;;;;;;;4.94;64.41;98119.09;5093216;28;20089;-72
2021/01/24 05:49:28;;;;;;;30.83;15.90;;;;;;;4.90;64.53;98118.41;5094857;28;20052;-73
2021/01/24 05:52:02;;;;;;;30.20;15.38;;;;;;;4.90;64.32;98123.59;5092854;28;20139;-74
2021/01/24 05:54:40;;;;;;;25.95;15.98;;;;;;;4.86;64.66;98123.81;5094946;28;20135;-74
2021/01/24 05:57:07;;;;;;;28.40;15.25;;;;;;;4.87;64.32;98112.53;5094494;28;20410;-73
2021/01/24 05:59:49;;;;;;;27.65;15.02;;;;;;;4.83;64.56;98109.25;5094966;28;20052;-74
2021/01/24 06:02:16;;;;;;;30.83;16.67;;;;;;;4.84;64.64;98102.28;5094651;28;20452;-74
2021/01/24 06:04:42;;;;;;;32.00;17.02;;;;;;;4.76;64.67;98102.66;5094625;28;20130;-74
2021/01/24 06:07:08;;;;;;;31.10;18.20;;;;;;;4.77;64.64;98106.91;5094419;28;20134;-73
2021/01/24 06:09:34;;;;;;;28.75;16.00;;;;;;;4.72;64.72;98110.66;5095377;28;20457;-73
2021/01/24 06:12:03;;;;;;;30.42;16.73;;;;;;;4.69;64.83;98108.22;5095079;28;20131;-73
2021/01/24 06:14:33;;;;;;;27.88;15.52;;;;;;;4.66;65.02;98113.56;5093618;28;20123;-73
2021/01/24 06:17:02;;;;;;;31.50;16.35;;;;;;;4.74;64.62;98108.84;5094210;28;20062;-74
2021/01/24 06:19:38;;;;;;;42.08;24.50;;;;;;;4.73;64.87;98100.22;5093049;28;20047;-74
2021/01/24 06:22:06;;;;;;;53.75;36.97;;;;;;;4.72;64.86;98098.53;5093717;28;20052;-74
2021/01/24 06:24:39;;;;;;;34.38;19.17;;;;;;;4.62;65.22;98089.53;5092942;28;20048;-73
2021/01/24 06:27:08;;;;;;;29.08;17.70;;;;;;;4.55;65.20;98091.56;5093671;28;20502;-73
2021/01/24 06:29:36;;;;;;;32.60;17.85;;;;;;;4.51;65.46;98095.22;5094165;28;20388;-72
2021/01/24 06:32:02;;;;;;;30.27;16.08;;;;;;;4.51;65.45;98094.38;5093556;28;20054;-73
2021/01/24 06:34:36;;;;;;;31.05;16.80;;;;;;;4.50;65.28;98093.53;5081583;28;20140;-73
2021/01/24 06:37:06;;;;;;;34.85;16.88;;;;;;;4.52;65.21;98101.25;5081922;28;20052;-73
2021/01/24 06:39:40;;;;;;;35.53;17.30;;;;;;;4.49;65.25;98094.47;5084335;28;20134;-73
2021/01/24 06:42:07;;;;;;;33.63;16.85;;;;;;;4.49;65.20;98088.44;5083627;28;20396;-73
2021/01/24 06:44:38;;;;;;;29.63;16.40;;;;;;;4.45;65.37;98085.13;5082279;28;20049;-74
2021/01/24 06:47:06;;;;;;;31.52;14.93;;;;;;;4.45;65.42;98084.31;5081316;28;20044;-74
2021/01/24 06:49:43;;;;;;;28.55;16.02;;;;;;;4.41;65.78;98086.22;5085727;28;20056;-74
2021/01/24 06:52:18;;;;;;;29.00;15.45;;;;;;;4.46;65.48;98086.81;5083106;28;20482;-74
2021/01/24 06:54:44;;;;;;;29.60;16.48;;;;;;;4.53;65.36;98090.78;5082318;28;20159;-73
2021/01/24 06:57:12;;;;;;;32.45;16.88;;;;;;;4.58;65.44;98083.66;5081487;28;20053;-74
2021/01/24 06:59:38;;;;;;;28.85;15.35;;;;;;;4.64;65.16;98081.66;5083610;28;20100;-73
2021/01/24 07:02:25;;;;;;;27.90;16.02;;;;;;;4.68;65.37;98088.38;5083946;28;20051;-75
2021/01/24 07:05:09;;;;;;;26.73;13.82;;;;;;;4.69;65.09;98084.88;5084140;28;20478;-76
2021/01/24 07:07:40;;;;;;;27.10;14.00;;;;;;;4.71;64.95;98080.44;5079771;28;20063;-76
2021/01/24 07:10:11;;;;;;;24.63;13.77;;;;;;;4.73;65.13;98083.78;5080636;28;20058;-77
2021/01/24 07:12:45;;;;;;;28.02;14.88;;;;;;;4.76;64.96;98086.22;5082441;28;20126;-76
2021/01/24 07:15:21;;;;;;;24.27;13.98;;;;;;;4.83;64.91;98079.84;5081770;28;20097;-76
2021/01/24 07:17:55;;;;;;;28.42;15.43;;;;;;;4.93;64.72;98081.06;5081798;28;20072;-76
2021/01/24 07:20:22;;;;;;;26.00;15.60;;;;;;;5.06;64.44;98074.34;5083758;28;20051;-76
2021/01/24 07:22:48;;;;;;;32.60;17.80;;;;;;;5.10;64.41;98069.81;5081001;28;20545;-77
2021/01/24 07:25:17;;;;;;;28.63;16.75;;;;;;;5.13;64.59;98070.50;5079801;28;20044;-77
2021/01/24 07:27:44;;;;;;;30.58;18.17;;;;;;;5.15;64.32;98073.00;5081889;28;20071;-76
2021/01/24 07:30:12;;;;;;;35.30;19.85;;;;;;;5.18;64.19;98067.66;5081554;28;20062;-75
2021/01/24 07:32:40;;;;;;;31.92;18.55;;;;;;;5.20;64.44;98064.09;5079621;28;20061;-76
2021/01/24 07:35:07;;;;;;;31.80;17.95;;;;;;;5.23;64.47;98054.47;5080710;28;20042;-76
2021/01/24 07:37:33;;;;;;;34.58;18.95;;;;;;;5.22;64.36;98061.41;5076765;28;20080;-77
2021/01/24 07:40:00;;;;;;;41.85;21.80;;;;;;;5.24;64.37;98050.94;5078843;28;20036;-75
2021/01/24 07:42:26;;;;;;;36.70;21.23;;;;;;;5.27;64.30;98066.38;5082856;28;20506;-77
2021/01/24 07:44:52;;;;;;;34.08;19.30;;;;;;;5.28;64.12;98063.69;5082162;28;20053;-76
2021/01/24 07:47:19;;;;;;;32.92;17.88;;;;;;;5.33;64.18;98071.25;5082069;28;20071;-76
2021/01/24 07:49:45;;;;;;;35.65;18.52;;;;;;;5.30;64.15;98076.59;5082493;28;20127;-76
2021/01/24 07:52:11;;;;;;;39.38;20.23;;;;;;;5.34;64.12;98070.31;5083117;28;20091;-76
2021/01/24 07:54:38;;;;;;;30.83;17.58;;;;;;;5.40;63.65;98062.19;5081214;28;20091;-76
2021/01/24 07:57:06;;;;;;;32.88;17.55;;;;;;;5.42;64.02;98071.63;5082478;28;20491;-76
2021/01/24 07:59:32;;;;;;;29.45;15.98;;;;;;;5.48;63.72;98065.25;5078491;28;20492;-76
2021/01/24 08:01:59;;;;;;;26.35;16.00;;;;;;;5.47;63.69;98056.63;5075322;28;20124;-77
2021/01/24 08:04:26;;;;;;;28.08;16.38;;;;;;;5.50;63.54;98060.81;5082192;28;20059;-75
2021/01/24 08:06:53;;;;;;;29.95;16.02;;;;;;;5.52;63.56;98056.38;5082529;28;20568;-75
2021/01/24 08:09:20;;;;;;;27.67;13.80;;;;;;;5.53;63.69;98058.03;5080675;28;20107;-76
2021/01/24 08:11:46;;;;;;;30.83;16.50;;;;;;;5.53;63.41;98058.03;5081594;28;20072;-76
2021/01/24 08:14:14;;;;;;;25.90;14.07;;;;;;;5.54;63.53;98049.31;5083134;28;20055;-77
2021/01/24 08:16:43;;;;;;;30.02;15.63;;;;;;;5.50;63.63;98060.81;5085247;28;20549;-75
2021/01/24 08:19:12;;;;;;;22.70;13.13;;;;;;;5.48;63.75;98050.50;5091171;28;20066;-76
2021/01/24 08:21:39;;;;;;;29.27;14.75;;;;;;;5.44;63.76;98050.75;5086940;28;20541;-76
2021/01/24 08:24:07;;;;;;;27.67;15.60;;;;;;;5.41;63.66;98040.50;5082820;28;20037;-75
2021/01/24 08:26:34;;;;;;;25.65;15.05;;;;;;;5.41;63.58;98048.28;5074566;28;20105;-75
2021/01/24 08:29:00;;;;;;;24.90;13.40;;;;;;;5.41;63.70;98048.28;5081891;28;20044;-76
2021/01/24 08:31:29;;;;;;;21.30;13.02;;;;;;;5.31;63.75;98044.50;5083114;28;20040;-76
2021/01/24 08:33:56;;;;;;;24.02;12.82;;;;;;;5.26;63.99;98034.34;5080636;28;20154;-75
2021/01/24 08:36:25;;;;;;;22.08;12.18;;;;;;;5.24;63.88;98035.34;5089540;28;20055;-75
2021/01/24 08:38:56;;;;;;;24.52;13.13;;;;;;;5.23;63.88;98031.09;5078904;28;20047;-76
2021/01/24 08:41:28;;;;;;;23.95;12.50;;;;;;;5.22;64.00;98038.03;5078192;28;20080;-75
2021/01/24 08:44:05;;;;;;;21.77;11.95;;;;;;;5.21;63.76;98036.34;5090939;28;20511;-77
2021/01/24 08:46:36;;;;;;;23.48;12.60;;;;;;;5.15;64.02;98042.69;5090727;28;20068;-75
2021/01/24 08:49:05;;;;;;;25.33;12.95;;;;;;;5.08;64.00;98028.34;5089819;28;20040;-74
2021/01/24 08:51:48;;;;;;;30.08;15.98;;;;;;;5.08;64.40;98030.94;5088684;28;20079;-75
2021/01/24 08:54:23;;;;;;;32.58;15.80;;;;;;;5.12;64.13;98016.88;5089601;28;20461;-74
2021/01/24 08:56:50;;;;;;;30.77;16.20;;;;;;;5.16;64.22;98018.38;5091119;28;20040;-76
2021/01/24 08:59:20;;;;;;;29.25;15.73;;;;;;;5.15;64.01;98021.91;5092518;28;20525;-73
2021/01/24 09:01:48;;;;;;;29.75;16.17;;;;;;;5.19;63.93;98018.22;5088615;28;20080;-75
2021/01/24 09:04:22;;;;;;;28.55;15.00;;;;;;;5.18;63.93;98021.75;5093802;28;20133;-74
2021/01/24 09:07:02;;;;;;;32.03;15.70;;;;;;;5.13;64.18;98013.34;5094144;28;20040;-71
2021/01/24 09:09:30;;;;;;;30.83;14.38;;;;;;;5.12;64.12;98019.47;5094589;28;20460;-73
2021/01/24 09:11:57;;;;;;;31.30;17.05;;;;;;;5.10;64.20;98013.53;5093570;28;20054;-72
2021/01/24 09:14:24;;;;;;;35.83;17.73;;;;;;;5.17;64.03;98020.06;5091653;28;20052;-73
2021/01/24 09:17:00;;;;;;;31.77;16.40;;;;;;;5.18;64.14;98018.31;5088003;28;20422;-74
2021/01/24 09:19:26;;;;;;;32.17;17.17;;;;;;;5.19;64.23;98020.81;5092377;28;20131;-73
2021/01/24 09:21:53;;;;;;;32.72;16.65;;;;;;;5.15;64.12;98016.72;5095811;28;20135;-72
2021/01/24 09:24:19;;;;;;;31.17;16.63;;;;;;;5.14;64.12;98009.00;5093343;28;20539;-73
2021/01/24 09:26:47;;;;;;;26.58;15.07;;;;;;;5.10;64.23;98012.69;5094974;28;20131;-71
2021/01/24 09:29:14;;;;;;;24.92;14.10;;;;;;;5.01;64.46;98016.59;5093212;28;20052;-74
2021/01/24 09:31:40;;;;;;;26.15;14.95;;;;;;;4.94;64.45;98015.22;5091350;28;20495;-74
2021/01/24 09:34:06;;;;;;;29.52;14.80;;;;;;;4.93;64.46;98010.94;5093275;28;20048;-75
2021/01/24 09:36:33;;;;;;;25.92;13.82;;;;;;;4.95;64.40;98009.09;5092558;28;20200;-75
2021/01/24 09:38:59;;;;;;;22.05;12.73;;;;;;;4.89;64.36;98012.03;5091041;28;20036;-76
2021/01/24 09:41:25;;;;;;;25.60;13.88;;;;;;;4.82;64.58;98005.47;5080471;28;20040;-75
2021/01/24 09:43:53;;;;;;;25.83;14.45;;;;;;;4.81;64.62;98003.81;5082463;28;20492;-74
2021/01/24 09:46:19;;;;;;;26.25;14.55;;;;;;;4.86;64.55;98000.03;5080550;28;20553;-74
2021/01/24 09:48:45;;;;;;;26.85;15.20;;;;;;;4.90;64.07;97986.00;5071088;28;20127;-74
2021/01/24 09:51:11;;;;;;;25.83;13.75;;;;;;;4.99;64.07;97989.00;5084543;28;20209;-76
2021/01/24 09:53:37;;;;;;;28.55;15.02;;;;;;;5.09;63.81;97991.06;5076929;28;20090;-77
2021/01/24 09:56:04;;;;;;;25.52;13.73;;;;;;;5.15;63.93;97984.72;5082034;28;20131;-76
2021/01/24 09:58:30;;;;;;;24.67;13.98;;;;;;;5.16;63.91;97986.38;5081114;28;20471;-76
2021/01/24 10:00:58;;;;;;;26.13;14.85;;;;;;;5.10;63.81;97979.75;5080801;28;20052;-74
2021/01/24 10:03:24;;;;;;;22.58;14.05;;;;;;;5.08;63.91;97981.59;5082885;28;20537;-76
2021/01/24 10:05:50;;;;;;;26.92;14.65;;;;;;;5.06;63.94;97977.41;5082269;28;20047;-74
2021/01/24 10:08:17;;;;;;;25.63;14.48;;;;;;;5.09;63.77;97967.69;5080796;28;20036;-76
2021/01/24 10:10:45;;;;;;;28.13;15.27;;;;;;;5.14;63.68;97968.28;5088300;28;20040;-76
2021/01/24 10:13:11;;;;;;;34.60;16.73;;;;;;;5.13;63.80;97960.56;5083663;28;20044;-74
2021/01/24 10:15:38;;;;;;;34.25;17.35;;;;;;;5.13;64.20;97970.97;5082476;28;20041;-75
2021/01/24 10:18:05;;;;;;;29.25;15.55;;;;;;;5.09;64.07;97972.91;5080689;28;20169;-75
2021/01/24 10:20:31;;;;;;;31.15;15.98;;;;;;;5.08;64.07;97973.81;5082177;28;20056;-76
2021/01/24 10:22:57;;;;;;;28.90;15.63;;;;;;;5.04;64.13;97969.72;5084169;28;20052;-73
2021/01/24 10:25:24;;;;;;;34.85;20.65;;;;;;;5.05;64.37;97968.78;5077969;28;20057;-76
2021/01/24 10:27:50;;;;;;;35.88;19.92;;;;;;;5.08;64.34;97972.97;5090474;28;20044;-71
2021/01/24 10:30:20;;;;;;;30.92;16.80;;;;;;;5.11;63.96;97973.66;5092595;28;20040;-75
2021/01/24 10:32:46;;;;;;;32.97;18.25;;;;;;;5.07;64.24;97966.94;5069480;28;20045;-73
2021/01/24 10:35:13;;;;;;;45.00;22.73;;;;;;;5.06;63.87;97967.03;5070291;28;20093;-73
2021/01/24 10:37:39;;;;;;;47.97;26.70;;;;;;;5.04;63.92;97980.09;5069671;28;20041;-73
2021/01/24 10:40:06;;;;;;;63.95;33.17;;;;;;;5.07;64.23;97981.69;5070334;28;20040;-73
2021/01/24 10:42:33;;;;;;;71.82;38.47;;;;;;;5.08;64.00;97988.56;5070212;28;20284;-72
2021/01/24 10:44:59;;;;;;;51.35;25.88;;;;;;;5.10;63.97;97995.34;5070850;28;20400;-73
2021/01/24 10:47:25;;;;;;;52.75;30.58;;;;;;;5.08;64.13;97998.94;5071559;28;20044;-73
2021/01/24 10:49:52;;;;;;;66.90;30.95;;;;;;;5.09;63.97;98003.22;5079164;28;20250;-72
2021/01/24 10:52:19;;;;;;;82.30;36.92;;;;;;;5.08;63.88;98004.97;5091982;28;20134;-73
2021/01/24 10:54:45;;;;;;;92.20;43.97;;;;;;;5.01;64.07;97988.03;5092519;28;20476;-73
2021/01/24 10:57:11;;;;;;;86.70;45.28;;;;;;;4.93;64.01;97992.78;5092682;28;20048;-73
2021/01/24 10:59:37;;;;;;;95.70;42.90;;;;;;;4.92;64.15;98001.47;5092580;28;20056;-72
2021/01/24 11:02:03;;;;;;;85.57;42.72;;;;;;;4.87;64.27;97993.09;5092112;28;20052;-73
2021/01/24 11:04:31;;;;;;;77.32;41.38;;;;;;;4.80;64.52;97986.56;5092799;28;20046;-72
2021/01/24 11:06:57;;;;;;;82.75;40.35;;;;;;;4.80;64.41;97989.16;5093173;28;20044;-72
2021/01/24 11:09:24;;;;;;;69.25;34.22;;;;;;;4.77;64.31;97978.91;5093307;28;20131;-73
2021/01/24 11:11:51;;;;;;;48.85;26.15;;;;;;;4.73;64.24;97983.41;5092452;28;20131;-72
2021/01/24 11:14:17;;;;;;;51.08;26.13;;;;;;;4.72;64.20;97980.91;5092252;28;20047;-72
2021/01/24 11:16:44;;;;;;;39.83;23.60;;;;;;;4.71;64.32;97977.47;5092188;28;20090;-74
2021/01/24 11:19:11;;;;;;;54.88;28.40;;;;;;;4.74;64.30;97984.25;5092330;28;20052;-72
2021/01/24 11:21:40;;;;;;;61.08;29.45;;;;;;;4.72;64.19;97979.13;5092525;28;20515;-74
2021/01/24 11:24:08;;;;;;;50.22;24.27;;;;;;;4.74;64.19;97973.88;5092403;28;20407;-72
2021/01/24 11:26:35;;;;;;;42.85;23.38;;;;;;;4.79;63.95;97977.06;5090950;28;20049;-74